Time;durP1;ratioP1;P1;durP2;ratioP2;P2;SDS_P1;SDS_P2;PMS_P1;PMS_P2;Temp;Humidity;BMP_temperature;BMP_pressure;BME280_temperature;BME280_humidity;BME280_pressure;Samples;Min_cycle;Max_cycle;Signal;HPM_P1;HPM_P2
2021/04/24 00:18:24;;;;;;;55.60;29.03;;;;;;;0.97;100.00;100988.53;20961489;27;912114;-62
2021/04/24 00:38:22;;;;;;;37.83;21.10;;;;;;;0.82;100.00;100991.41;20896642;27;20598;-69
2021/04/24 00:48:23;;;;;;;47.47;24.97;;;;;;;0.69;100.00;100976.72;20883961;28;20554;-73
2021/04/24 01:18:22;;;;;;;38.50;18.93;;;;;;;0.43;100.00;100979.66;20896884;27;20609;-58
2021/04/24 01:28:22;;;;;;;45.83;23.87;;;;;;;0.36;100.00;100983.25;20885536;28;20220;-66
2021/04/24 01:38:23;;;;;;;36.33;19.43;;;;;;;0.29;100.00;100977.19;20884804;28;20230;-73
2021/04/24 01:48:23;;;;;;;38.87;19.40;;;;;;;0.21;100.00;100981.69;20865730;28;20462;-73
2021/04/24 02:08:25;;;;;;;32.77;16.17;;;;;;;0.04;100.00;100973.13;20815341;28;20580;-64
2021/04/24 02:28:22;;;;;;;31.87;16.60;;;;;;;0.00;100.00;100974.06;20896477;27;20552;-70
2021/04/24 02:38:25;;;;;;;29.60;17.10;;;;;;;0.01;100.00;100981.00;20885293;28;20249;-73
2021/04/24 02:58:20;;;;;;;21.77;11.90;;;;;;;-0.05;100.00;100970.59;20878795;27;913772;-63
2021/04/24 03:38:12;;;;;;;17.57;10.13;;;;;;;-0.05;100.00;100981.97;20899035;27;20550;-61
2021/04/24 03:48:12;;;;;;;22.07;11.73;;;;;;;0.04;100.00;100991.47;20883677;28;20295;-61
2021/04/24 03:58:13;;;;;;;22.03;11.93;;;;;;;0.26;100.00;100992.09;20884346;28;20764;-66
2021/04/24 04:08:14;;;;;;;22.17;12.55;;;;;;;0.90;100.00;100992.16;20882348;28;20223;-59
2021/04/24 04:18:17;;;;;;;29.47;14.77;;;;;;;1.55;100.00;101000.81;20881162;28;20270;-61
2021/04/24 04:28:18;;;;;;;29.20;13.30;;;;;;;1.95;100.00;101008.00;20881748;28;20249;-63
2021/04/24 04:38:19;;;;;;;18.07;10.63;;;;;;;2.33;100.00;101005.53;20881236;28;20352;-60
2021/04/24 04:48:19;;;;;;;17.37;10.37;;;;;;;2.67;100.00;101002.19;20832056;28;20279;-62
2021/04/24 05:18:11;;;;;;;12.67;8.80;;;;;;;2.28;100.00;101001.25;20981666;27;20573;-61
2021/04/24 05:28:12;;;;;;;14.03;9.13;;;;;;;2.34;100.00;101009.03;20978598;28;20230;-59
2021/04/24 05:38:13;;;;;;;15.77;9.77;;;;;;;2.44;100.00;101014.06;20967201;28;20503;-71
2021/04/24 05:48:13;;;;;;;14.87;9.70;;;;;;;2.74;100.00;101001.19;20910974;28;20842;-62
2021/04/24 06:08:15;;;;;;;15.37;9.97;;;;;;;3.22;100.00;101031.75;20845257;27;20655;-65
2021/04/24 06:38:16;;;;;;;8.87;5.37;;;;;;;4.37;100.00;101047.34;20876320;27;20936;-60
2021/04/24 06:48:16;;;;;;;9.90;5.70;;;;;;;4.70;100.00;101057.88;20864358;28;20266;-70
2021/04/24 06:58:17;;;;;;;8.27;5.03;;;;;;;4.98;100.00;101038.53;20864290;28;20530;-68
2021/04/24 07:18:13;;;;;;;6.40;4.30;;;;;;;5.58;100.00;101038.41;20973788;27;21259;-61
2021/04/24 07:28:14;;;;;;;6.23;4.13;;;;;;;5.89;100.00;101027.72;20948997;28;20257;-59
2021/04/24 07:38:14;;;;;;;5.77;4.60;;;;;;;6.24;100.00;101038.88;20929994;28;20230;-62
2021/04/24 07:48:15;;;;;;;6.17;4.67;;;;;;;6.69;100.00;101031.91;20960524;28;20232;-59
2021/04/24 07:58:16;;;;;;;6.67;5.13;;;;;;;7.41;100.00;101022.06;20934737;28;20710;-60
2021/04/24 08:08:16;;;;;;;5.17;4.33;;;;;;;8.00;95.34;101031.16;20956005;28;21029;-61
2021/04/24 08:18:17;;;;;;;4.70;4.20;;;;;;;8.68;97.14;101029.97;20944001;28;20787;-63
2021/04/24 08:28:17;;;;;;;3.90;3.47;;;;;;;8.95;88.84;101034.03;20892929;28;20481;-60
2021/04/24 08:38:19;;;;;;;4.97;3.70;;;;;;;9.27;86.19;101029.88;20892995;28;21008;-63
2021/04/24 08:48:20;;;;;;;3.80;3.40;;;;;;;9.33;85.56;101014.44;20870408;28;20337;-59
2021/04/24 08:58:21;;;;;;;4.53;3.50;;;;;;;10.09;86.28;101012.47;20873824;28;20693;-60
2021/04/24 09:08:26;;;;;;;5.30;3.20;;;;;;;10.34;80.81;101025.44;20857214;28;20230;-60
2021/04/24 09:18:28;;;;;;;3.73;3.40;;;;;;;10.51;81.59;101021.84;20875031;28;20555;-61
2021/04/24 09:28:41;;;;;;;3.70;3.20;;;;;;;10.80;76.67;101006.03;20862074;28;20766;-59
2021/04/24 09:38:52;;;;;;;3.00;2.70;;;;;;;10.94;74.70;100999.94;20851304;28;20249;-60
2021/04/24 09:49:08;;;;;;;3.67;2.40;;;;;;;10.72;70.63;100999.38;20872322;28;20223;-61
2021/04/24 09:59:10;;;;;;;3.20;2.73;;;;;;;10.44;75.64;100979.50;20891564;28;20233;-63
2021/04/24 10:09:27;;;;;;;4.07;2.30;;;;;;;10.89;75.92;100969.06;20874241;28;20258;-60
2021/04/24 10:19:29;;;;;;;2.40;1.80;;;;;;;11.18;71.59;100957.66;20861106;28;20215;-64
2021/04/24 10:29:29;;;;;;;2.57;2.37;;;;;;;10.60;69.35;100962.69;20882306;28;20303;-68
2021/04/24 10:39:35;;;;;;;4.43;3.77;;;;;;;10.51;70.81;100964.00;20850570;28;20333;-60
2021/04/24 10:49:52;;;;;;;2.20;2.00;;;;;;;10.85;62.96;100955.06;20870372;28;20318;-63
2021/04/24 10:59:55;;;;;;;3.23;2.07;;;;;;;10.62;69.60;100967.00;20869790;28;20229;-66
2021/04/24 11:10:14;;;;;;;3.57;3.10;;;;;;;11.46;66.94;100970.31;20880264;28;20700;-60
2021/04/24 11:20:54;;;;;;;2.27;1.57;;;;;;;11.39;61.34;100976.94;20849133;28;20222;-62
2021/04/24 11:30:59;;;;;;;2.87;1.70;;;;;;;11.26;69.66;100974.09;20870356;28;20281;-60
2021/04/24 11:41:37;;;;;;;2.93;1.50;;;;;;;10.39;64.01;100970.00;20885096;28;20234;-61
2021/04/24 11:51:39;;;;;;;1.90;1.60;;;;;;;10.10;64.04;100963.53;20863967;28;20332;-64
2021/04/24 12:01:40;;;;;;;3.13;1.67;;;;;;;10.13;61.11;100949.16;20895766;28;20939;-63
2021/04/24 12:11:42;;;;;;;2.87;2.40;;;;;;;10.79;66.26;100952.72;20895071;28;20269;-61
2021/04/24 12:21:42;;;;;;;3.53;2.57;;;;;;;11.08;64.55;100948.44;20884964;28;20227;-61
2021/04/24 12:31:43;;;;;;;4.03;2.67;;;;;;;11.36;56.18;100923.66;20861634;28;20227;-60
2021/04/24 12:41:47;;;;;;;3.47;2.80;;;;;;;11.93;57.46;100939.94;20882662;28;20223;-62
2021/04/24 12:51:59;;;;;;;3.80;3.30;;;;;;;11.54;54.62;100925.28;20876603;28;20248;-63
2021/04/24 13:01:59;;;;;;;2.50;2.30;;;;;;;10.95;60.47;100948.25;20900337;28;20293;-64
2021/04/24 13:12:09;;;;;;;3.63;2.80;;;;;;;10.76;56.12;100924.38;20869407;28;20341;-60
2021/04/24 13:22:09;;;;;;;3.00;2.27;;;;;;;11.56;61.78;100915.34;20881906;28;20230;-61
2021/04/24 13:32:14;;;;;;;2.67;2.47;;;;;;;11.99;52.82;100912.81;20873568;28;20964;-61
2021/04/24 13:42:22;;;;;;;2.40;2.20;;;;;;;11.78;49.90;100899.78;20871531;28;20230;-60
2021/04/24 13:52:23;;;;;;;2.47;1.60;;;;;;;12.20;50.31;100872.22;20885347;28;20290;-60
2021/04/24 14:02:24;;;;;;;2.23;1.83;;;;;;;12.05;48.05;100886.56;20842034;28;20272;-62
2021/04/24 14:12:24;;;;;;;1.63;1.40;;;;;;;11.68;51.53;100879.88;20880430;28;21017;-60
2021/04/24 14:22:25;;;;;;;3.17;2.87;;;;;;;11.56;58.19;100875.25;20864491;28;20238;-62
2021/04/24 14:32:25;;;;;;;2.47;1.80;;;;;;;11.44;54.71;100875.97;20875340;28;20346;-60
2021/04/24 14:42:27;;;;;;;3.33;2.70;;;;;;;11.35;50.69;100849.81;20868996;28;20235;-62
2021/04/24 14:52:29;;;;;;;2.63;2.43;;;;;;;11.14;55.20;100868.78;20869021;28;20257;-62
2021/04/24 15:02:30;;;;;;;5.20;4.10;;;;;;;10.57;52.28;100872.09;20875548;28;20223;-63
2021/04/24 15:12:30;;;;;;;4.77;3.10;;;;;;;10.88;50.45;100868.56;20862620;28;20243;-70
2021/04/24 15:22:31;;;;;;;5.50;2.90;;;;;;;10.40;55.08;100822.31;20866803;28;20243;-69
2021/04/24 15:32:31;;;;;;;5.57;3.13;;;;;;;10.42;57.73;100831.97;20903126;28;20265;-70
2021/04/24 15:42:34;;;;;;;22.10;14.40;;;;;;;10.69;54.71;100842.06;20979875;28;20242;-63
2021/04/24 15:52:34;;;;;;;4.70;3.50;;;;;;;10.62;52.92;100856.72;20960363;28;20230;-63
2021/04/24 16:02:35;;;;;;;3.07;2.77;;;;;;;10.39;56.04;100841.94;20979487;28;20608;-58
2021/04/24 16:12:36;;;;;;;6.03;3.87;;;;;;;10.25;52.82;100840.06;20963368;28;20240;-62
2021/04/24 16:22:37;;;;;;;4.40;3.47;;;;;;;10.13;57.80;100842.50;20972657;28;20905;-59
2021/04/24 16:32:38;;;;;;;6.80;4.60;;;;;;;9.82;59.40;100840.59;20973955;28;20231;-59
2021/04/24 16:42:40;;;;;;;4.80;3.60;;;;;;;9.49;60.63;100838.75;20944100;28;20228;-69
2021/04/24 16:52:40;;;;;;;7.70;4.57;;;;;;;9.13;59.32;100875.22;20976247;28;20697;-59
2021/04/24 17:02:41;;;;;;;4.60;3.93;;;;;;;8.22;67.78;100888.38;20953397;28;20222;-60
2021/04/24 17:12:41;;;;;;;6.17;3.87;;;;;;;7.64;67.69;100863.53;20972703;28;20296;-68
2021/04/24 17:22:42;;;;;;;5.50;4.03;;;;;;;8.18;63.34;100855.78;20952613;28;20542;-62
2021/04/24 17:32:43;;;;;;;2.97;2.70;;;;;;;8.39;62.98;100869.03;20971238;28;20219;-62
2021/04/24 17:42:43;;;;;;;5.57;4.07;;;;;;;8.41;63.09;100875.16;20956637;28;20226;-62
2021/04/24 17:52:44;;;;;;;4.23;3.20;;;;;;;8.05;62.95;100894.47;20966040;28;20380;-63
2021/04/24 18:02:45;;;;;;;3.90;3.20;;;;;;;7.68;65.89;100897.88;20963244;28;20223;-67
2021/04/24 18:12:46;;;;;;;6.17;4.67;;;;;;;7.32;70.39;100892.34;20958060;28;20230;-62
2021/04/24 18:22:47;;;;;;;5.70;3.97;;;;;;;7.08;69.18;100896.00;20968882;28;20334;-61
2021/04/24 18:32:48;;;;;;;17.70;5.43;;;;;;;7.07;71.95;100910.19;20948748;28;20242;-61
2021/04/24 18:52:46;;;;;;;15.77;10.50;;;;;;;7.06;71.10;100901.38;20857411;27;20613;-60
2021/04/24 19:02:47;;;;;;;16.23;9.33;;;;;;;6.84;73.22;100909.34;20872042;28;20847;-59
2021/04/24 19:12:49;;;;;;;10.27;6.87;;;;;;;6.53;72.02;100907.91;20856514;28;20353;-62
2021/04/24 19:22:49;;;;;;;9.00;5.37;;;;;;;6.39;72.15;100922.56;20889842;28;20332;-62
2021/04/24 19:32:51;;;;;;;16.60;10.73;;;;;;;6.35;72.37;100914.78;20844385;28;20238;-62
2021/04/24 19:42:53;;;;;;;33.33;18.20;;;;;;;6.22;74.55;100910.84;20809286;28;20234;-60
2021/04/24 20:02:49;;;;;;;14.90;9.10;;;;;;;6.43;79.40;100929.47;20809727;28;21115;-64
2021/04/24 20:12:50;;;;;;;23.37;11.53;;;;;;;6.52;77.87;100928.25;20819749;28;20237;-67
2021/04/24 20:22:51;;;;;;;37.40;17.40;;;;;;;6.54;79.25;100931.72;20801717;28;20234;-63
2021/04/24 20:42:48;;;;;;;15.23;9.20;;;;;;;6.32;75.55;100933.44;20744029;28;20553;-63
2021/04/24 20:52:51;;;;;;;31.87;16.33;;;;;;;6.18;76.24;100941.91;20750399;28;20230;-62
2021/04/24 21:02:51;;;;;;;24.07;14.53;;;;;;;6.00;79.38;100940.78;20750152;28;20217;-61
2021/04/24 21:12:51;;;;;;;16.87;10.40;;;;;;;5.89;78.69;100944.75;20793059;28;20685;-61
2021/04/24 21:32:48;;;;;;;13.57;9.20;;;;;;;5.50;85.08;100938.97;20879495;27;20613;-64
2021/04/24 21:42:49;;;;;;;15.27;10.17;;;;;;;5.16;85.15;100940.09;20872881;28;20989;-63
2021/04/24 21:52:49;;;;;;;13.50;7.53;;;;;;;4.94;78.26;100944.34;20875103;28;20221;-66
2021/04/24 22:02:51;;;;;;;9.87;7.13;;;;;;;4.85;73.60;100960.47;20868721;28;20748;-63
2021/04/24 22:12:51;;;;;;;8.47;5.60;;;;;;;4.74;73.66;100957.28;20856917;28;20449;-61
2021/04/24 22:32:49;;;;;;;9.93;5.53;;;;;;;4.74;72.52;100946.72;21008507;27;934532;-68
2021/04/24 22:52:48;;;;;;;6.47;4.53;;;;;;;4.41;73.82;100936.22;20959493;27;21053;-65
2021/04/24 23:02:49;;;;;;;9.37;5.70;;;;;;;4.29;73.93;100944.50;20934648;28;20253;-65
2021/04/24 23:22:48;;;;;;;10.87;5.20;;;;;;;3.97;73.50;100933.09;20776621;28;21199;-60
2021/04/24 23:32:49;;;;;;;7.27;4.90;;;;;;;3.88;73.73;100924.53;20789232;28;20266;-61
2021/04/24 23:42:49;;;;;;;7.27;4.67;;;;;;;3.84;75.96;100931.69;20777225;28;20264;-61
2021/04/24 23:52:49;;;;;;;11.10;5.80;;;;;;;3.90;79.40;100920.94;20780917;28;20246;-60
